sensor_id;sensor_type;location;lat;lon;timestamp;temperature;humidity
54518;DHT22;40423;53.176;6.002;2023-04-24T00:00:02;11.50;99.90
54518;DHT22;40423;53.176;6.002;2023-04-24T00:02:31;11.50;99.90
54518;DHT22;40423;53.176;6.002;2023-04-24T00:04:58;11.50;99.90
54518;DHT22;40423;53.176;6.002;2023-04-24T00:07:28;11.50;99.90
54518;DHT22;40423;53.176;6.002;2023-04-24T00:09:54;11.60;99.90
54518;DHT22;40423;53.176;6.002;2023-04-24T00:12:20;11.60;99.90
54518;DHT22;40423;53.176;6.002;2023-04-24T00:14:46;11.60;99.90
54518;DHT22;40423;53.176;6.002;2023-04-24T00:17:12;11.60;99.90
54518;DHT22;40423;53.176;6.002;2023-04-24T00:19:38;11.50;99.90
54518;DHT22;40423;53.176;6.002;2023-04-24T00:22:04;11.50;99.90
54518;DHT22;40423;53.176;6.002;2023-04-24T00:24:29;11.60;99.90
54518;DHT22;40423;53.176;6.002;2023-04-24T00:26:55;11.60;99.90
54518;DHT22;40423;53.176;6.002;2023-04-24T00:29:21;11.60;99.90
54518;DHT22;40423;53.176;6.002;2023-04-24T00:31:48;11.50;99.90
54518;DHT22;40423;53.176;6.002;2023-04-24T00:34:13;11.60;99.90
54518;DHT22;40423;53.176;6.002;2023-04-24T00:36:39;11.60;99.90
54518;DHT22;40423;53.176;6.002;2023-04-24T00:39:05;11.60;99.90
54518;DHT22;40423;53.176;6.002;2023-04-24T00:41:34;11.60;99.90
54518;DHT22;40423;53.176;6.002;2023-04-24T00:44:00;11.50;99.90
54518;DHT22;40423;53.176;6.002;2023-04-24T00:46:26;11.60;99.90
54518;DHT22;40423;53.176;6.002;2023-04-24T00:48:52;11.60;99.90
54518;DHT22;40423;53.176;6.002;2023-04-24T00:51:18;11.60;99.90
54518;DHT22;40423;53.176;6.002;2023-04-24T00:53:44;11.60;99.90
54518;DHT22;40423;53.176;6.002;2023-04-24T00:56:10;11.50;99.90
54518;DHT22;40423;53.176;6.002;2023-04-24T00:58:36;11.50;99.90
54518;DHT22;40423;53.176;6.002;2023-04-24T01:01:02;11.50;99.90
54518;DHT22;40423;53.176;6.002;2023-04-24T01:03:29;11.50;99.90
54518;DHT22;40423;53.176;6.002;2023-04-24T01:05:57;11.50;99.90
54518;DHT22;40423;53.176;6.002;2023-04-24T01:08:24;11.50;99.90
54518;DHT22;40423;53.176;6.002;2023-04-24T01:10:54;11.50;99.90
54518;DHT22;40423;53.176;6.002;2023-04-24T01:13:20;11.50;99.90
54518;DHT22;40423;53.176;6.002;2023-04-24T01:15:47;11.50;99.90
54518;DHT22;40423;53.176;6.002;2023-04-24T01:18:13;11.50;99.90
54518;DHT22;40423;53.176;6.002;2023-04-24T01:20:43;11.50;99.90
54518;DHT22;40423;53.176;6.002;2023-04-24T01:23:10;11.50;99.90
54518;DHT22;40423;53.176;6.002;2023-04-24T01:25:37;11.50;99.90
54518;DHT22;40423;53.176;6.002;2023-04-24T01:28:03;11.50;99.90
54518;DHT22;40423;53.176;6.002;2023-04-24T01:30:29;11.50;99.90
54518;DHT22;40423;53.176;6.002;2023-04-24T01:32:55;11.50;99.90
54518;DHT22;40423;53.176;6.002;2023-04-24T01:35:21;11.50;99.90
54518;DHT22;40423;53.176;6.002;2023-04-24T01:37:47;11.40;99.90
54518;DHT22;40423;53.176;6.002;2023-04-24T01:40:12;11.40;99.90
54518;DHT22;40423;53.176;6.002;2023-04-24T01:42:41;11.40;99.90
54518;DHT22;40423;53.176;6.002;2023-04-24T01:45:09;11.40;99.90
54518;DHT22;40423;53.176;6.002;2023-04-24T01:47:36;11.50;99.90
54518;DHT22;40423;53.176;6.002;2023-04-24T01:50:03;11.40;99.90
54518;DHT22;40423;53.176;6.002;2023-04-24T01:52:29;11.40;99.90
54518;DHT22;40423;53.176;6.002;2023-04-24T01:54:59;11.40;99.90
54518;DHT22;40423;53.176;6.002;2023-04-24T01:57:25;11.40;99.90
54518;DHT22;40423;53.176;6.002;2023-04-24T01:59:51;11.40;99.90
54518;DHT22;40423;53.176;6.002;2023-04-24T02:02:17;11.40;99.90
54518;DHT22;40423;53.176;6.002;2023-04-24T02:04:43;11.30;99.90
54518;DHT22;40423;53.176;6.002;2023-04-24T02:07:08;11.30;99.90
54518;DHT22;40423;53.176;6.002;2023-04-24T02:09:34;11.30;99.90
54518;DHT22;40423;53.176;6.002;2023-04-24T02:12:00;11.30;99.90
54518;DHT22;40423;53.176;6.002;2023-04-24T02:14:26;11.30;99.90
54518;DHT22;40423;53.176;6.002;2023-04-24T02:16:52;11.30;99.90
54518;DHT22;40423;53.176;6.002;2023-04-24T02:19:18;11.30;99.90
54518;DHT22;40423;53.176;6.002;2023-04-24T02:21:44;11.30;99.90
54518;DHT22;40423;53.176;6.002;2023-04-24T02:24:10;11.30;99.90
54518;DHT22;40423;53.176;6.002;2023-04-24T02:26:36;11.30;99.90
54518;DHT22;40423;53.176;6.002;2023-04-24T02:29:02;11.30;99.90
54518;DHT22;40423;53.176;6.002;2023-04-24T02:31:27;11.30;99.90
54518;DHT22;40423;53.176;6.002;2023-04-24T02:33:53;11.30;99.90
54518;DHT22;40423;53.176;6.002;2023-04-24T02:36:19;11.30;99.90
54518;DHT22;40423;53.176;6.002;2023-04-24T02:38:45;11.20;99.90
54518;DHT22;40423;53.176;6.002;2023-04-24T02:41:11;11.20;99.90
54518;DHT22;40423;53.176;6.002;2023-04-24T02:43:36;11.30;99.90
54518;DHT22;40423;53.176;6.002;2023-04-24T02:46:02;11.30;99.90
54518;DHT22;40423;53.176;6.002;2023-04-24T02:48:28;11.30;99.90
54518;DHT22;40423;53.176;6.002;2023-04-24T02:50:54;11.30;99.90
54518;DHT22;40423;53.176;6.002;2023-04-24T02:53:19;11.30;99.90
54518;DHT22;40423;53.176;6.002;2023-04-24T02:55:45;11.30;99.90
54518;DHT22;40423;53.176;6.002;2023-04-24T02:58:11;11.30;99.90
54518;DHT22;40423;53.176;6.002;2023-04-24T03:00:38;11.30;99.90
54518;DHT22;40423;53.176;6.002;2023-04-24T03:03:05;11.30;99.90
54518;DHT22;40423;53.176;6.002;2023-04-24T03:05:31;11.30;99.90
54518;DHT22;40423;53.176;6.002;2023-04-24T03:07:56;11.30;99.90
54518;DHT22;40423;53.176;6.002;2023-04-24T03:10:22;11.30;99.90
54518;DHT22;40423;53.176;6.002;2023-04-24T03:12:48;11.30;99.90
54518;DHT22;40423;53.176;6.002;2023-04-24T03:15:14;11.30;99.90
54518;DHT22;40423;53.176;6.002;2023-04-24T03:17:40;11.30;99.90
54518;DHT22;40423;53.176;6.002;2023-04-24T03:20:07;11.20;99.90
54518;DHT22;40423;53.176;6.002;2023-04-24T03:22:34;11.20;99.90
54518;DHT22;40423;53.176;6.002;2023-04-24T03:25:00;11.00;99.90
54518;DHT22;40423;53.176;6.002;2023-04-24T03:27:26;11.00;99.90
54518;DHT22;40423;53.176;6.002;2023-04-24T03:29:52;10.90;99.90
54518;DHT22;40423;53.176;6.002;2023-04-24T03:32:21;10.90;99.90
54518;DHT22;40423;53.176;6.002;2023-04-24T03:34:50;10.80;99.90
54518;DHT22;40423;53.176;6.002;2023-04-24T03:37:17;10.80;99.90
54518;DHT22;40423;53.176;6.002;2023-04-24T03:39:43;10.80;99.90
54518;DHT22;40423;53.176;6.002;2023-04-24T03:42:08;10.80;99.90
54518;DHT22;40423;53.176;6.002;2023-04-24T03:44:35;10.70;99.90
54518;DHT22;40423;53.176;6.002;2023-04-24T03:47:01;10.70;99.90
54518;DHT22;40423;53.176;6.002;2023-04-24T03:49:27;10.70;99.90
54518;DHT22;40423;53.176;6.002;2023-04-24T03:51:53;10.70;99.90
54518;DHT22;40423;53.176;6.002;2023-04-24T03:54:19;10.70;99.90
54518;DHT22;40423;53.176;6.002;2023-04-24T03:56:45;10.70;99.90
54518;DHT22;40423;53.176;6.002;2023-04-24T03:59:11;10.60;99.90
54518;DHT22;40423;53.176;6.002;2023-04-24T04:01:37;10.60;99.90
54518;DHT22;40423;53.176;6.002;2023-04-24T04:04:03;10.60;99.90
54518;DHT22;40423;53.176;6.002;2023-04-24T04:06:29;10.60;99.90
54518;DHT22;40423;53.176;6.002;2023-04-24T04:08:57;10.60;99.90
54518;DHT22;40423;53.176;6.002;2023-04-24T04:11:22;10.50;99.90
54518;DHT22;40423;53.176;6.002;2023-04-24T04:13:48;10.50;99.90
54518;DHT22;40423;53.176;6.002;2023-04-24T04:16:14;10.50;99.90
54518;DHT22;40423;53.176;6.002;2023-04-24T04:18:42;10.40;99.90
54518;DHT22;40423;53.176;6.002;2023-04-24T04:21:08;10.40;99.90
54518;DHT22;40423;53.176;6.002;2023-04-24T04:23:34;10.40;99.90
54518;DHT22;40423;53.176;6.002;2023-04-24T04:26:00;10.40;99.90
54518;DHT22;40423;53.176;6.002;2023-04-24T04:28:26;10.30;99.90
54518;DHT22;40423;53.176;6.002;2023-04-24T04:30:52;10.40;99.90
54518;DHT22;40423;53.176;6.002;2023-04-24T04:33:22;10.30;99.90
54518;DHT22;40423;53.176;6.002;2023-04-24T04:35:48;10.30;99.90
54518;DHT22;40423;53.176;6.002;2023-04-24T04:38:22;10.30;99.90
54518;DHT22;40423;53.176;6.002;2023-04-24T04:40:48;10.30;99.90
54518;DHT22;40423;53.176;6.002;2023-04-24T04:43:14;10.30;99.90
54518;DHT22;40423;53.176;6.002;2023-04-24T04:45:42;10.30;99.90
54518;DHT22;40423;53.176;6.002;2023-04-24T04:48:09;10.30;99.90
54518;DHT22;40423;53.176;6.002;2023-04-24T04:50:37;10.30;99.90
54518;DHT22;40423;53.176;6.002;2023-04-24T04:53:03;10.30;99.90
54518;DHT22;40423;53.176;6.002;2023-04-24T04:55:29;10.30;99.90
54518;DHT22;40423;53.176;6.002;2023-04-24T04:57:55;10.20;99.90
54518;DHT22;40423;53.176;6.002;2023-04-24T05:00:21;10.20;99.90
54518;DHT22;40423;53.176;6.002;2023-04-24T05:02:49;10.20;99.90
54518;DHT22;40423;53.176;6.002;2023-04-24T05:05:14;10.20;99.90
54518;DHT22;40423;53.176;6.002;2023-04-24T05:07:42;10.20;99.90
54518;DHT22;40423;53.176;6.002;2023-04-24T05:10:08;10.20;99.90
54518;DHT22;40423;53.176;6.002;2023-04-24T05:12:34;10.20;99.90
54518;DHT22;40423;53.176;6.002;2023-04-24T05:15:00;10.20;99.90
54518;DHT22;40423;53.176;6.002;2023-04-24T05:17:26;10.20;99.90
54518;DHT22;40423;53.176;6.002;2023-04-24T05:19:51;10.20;99.90
54518;DHT22;40423;53.176;6.002;2023-04-24T05:22:17;10.20;99.90
54518;DHT22;40423;53.176;6.002;2023-04-24T05:24:46;10.20;99.90
54518;DHT22;40423;53.176;6.002;2023-04-24T05:27:12;10.20;99.90
54518;DHT22;40423;53.176;6.002;2023-04-24T05:29:38;10.10;99.90
54518;DHT22;40423;53.176;6.002;2023-04-24T05:32:04;10.10;99.90
54518;DHT22;40423;53.176;6.002;2023-04-24T05:34:30;10.10;99.90
54518;DHT22;40423;53.176;6.002;2023-04-24T05:36:56;10.00;99.90
54518;DHT22;40423;53.176;6.002;2023-04-24T05:39:21;10.00;99.90
54518;DHT22;40423;53.176;6.002;2023-04-24T05:41:47;10.00;99.90
54518;DHT22;40423;53.176;6.002;2023-04-24T05:44:13;10.00;99.90
54518;DHT22;40423;53.176;6.002;2023-04-24T05:46:38;10.10;99.90
54518;DHT22;40423;53.176;6.002;2023-04-24T05:49:04;10.10;99.90
54518;DHT22;40423;53.176;6.002;2023-04-24T05:51:30;10.10;99.90
54518;DHT22;40423;53.176;6.002;2023-04-24T05:53:57;10.10;99.90
54518;DHT22;40423;53.176;6.002;2023-04-24T05:56:23;10.10;99.90
54518;DHT22;40423;53.176;6.002;2023-04-24T05:58:49;10.00;99.90
54518;DHT22;40423;53.176;6.002;2023-04-24T06:01:14;10.10;99.90
54518;DHT22;40423;53.176;6.002;2023-04-24T06:03:41;10.00;99.90
54518;DHT22;40423;53.176;6.002;2023-04-24T06:06:08;10.00;99.90
54518;DHT22;40423;53.176;6.002;2023-04-24T06:08:36;10.00;99.90
54518;DHT22;40423;53.176;6.002;2023-04-24T06:11:02;10.00;99.90
54518;DHT22;40423;53.176;6.002;2023-04-24T06:13:28;10.00;99.90
54518;DHT22;40423;53.176;6.002;2023-04-24T06:15:54;10.00;99.90
54518;DHT22;40423;53.176;6.002;2023-04-24T06:18:19;10.00;99.90
54518;DHT22;40423;53.176;6.002;2023-04-24T06:20:46;9.90;99.90
54518;DHT22;40423;53.176;6.002;2023-04-24T06:23:12;10.00;99.90
54518;DHT22;40423;53.176;6.002;2023-04-24T06:25:38;9.90;99.90
54518;DHT22;40423;53.176;6.002;2023-04-24T06:28:04;9.90;99.90
54518;DHT22;40423;53.176;6.002;2023-04-24T06:30:30;9.90;99.90
54518;DHT22;40423;53.176;6.002;2023-04-24T06:32:56;9.90;99.90
54518;DHT22;40423;53.176;6.002;2023-04-24T06:35:22;9.90;99.90
54518;DHT22;40423;53.176;6.002;2023-04-24T06:37:54;9.90;99.90
54518;DHT22;40423;53.176;6.002;2023-04-24T06:40:21;9.80;99.90
54518;DHT22;40423;53.176;6.002;2023-04-24T06:42:47;9.90;99.90
54518;DHT22;40423;53.176;6.002;2023-04-24T06:45:13;9.80;99.90
54518;DHT22;40423;53.176;6.002;2023-04-24T06:47:39;9.80;99.90
54518;DHT22;40423;53.176;6.002;2023-04-24T06:50:05;9.80;99.90
54518;DHT22;40423;53.176;6.002;2023-04-24T06:52:31;9.80;99.90
54518;DHT22;40423;53.176;6.002;2023-04-24T06:55:01;9.80;99.90
54518;DHT22;40423;53.176;6.002;2023-04-24T06:57:28;9.70;99.90
54518;DHT22;40423;53.176;6.002;2023-04-24T06:59:54;9.70;99.90
54518;DHT22;40423;53.176;6.002;2023-04-24T07:02:19;9.70;99.90
54518;DHT22;40423;53.176;6.002;2023-04-24T07:04:45;9.70;99.90
54518;DHT22;40423;53.176;6.002;2023-04-24T07:07:12;9.70;99.90
54518;DHT22;40423;53.176;6.002;2023-04-24T07:09:39;9.60;99.90
54518;DHT22;40423;53.176;6.002;2023-04-24T07:12:08;9.60;99.90
54518;DHT22;40423;53.176;6.002;2023-04-24T07:14:34;9.60;99.90
54518;DHT22;40423;53.176;6.002;2023-04-24T07:17:00;9.50;99.90
54518;DHT22;40423;53.176;6.002;2023-04-24T07:19:26;9.50;99.90
54518;DHT22;40423;53.176;6.002;2023-04-24T07:21:52;9.50;99.90
54518;DHT22;40423;53.176;6.002;2023-04-24T07:24:19;9.60;99.90
54518;DHT22;40423;53.176;6.002;2023-04-24T07:26:44;9.60;99.90
54518;DHT22;40423;53.176;6.002;2023-04-24T07:29:13;9.50;99.90
54518;DHT22;40423;53.176;6.002;2023-04-24T07:31:39;9.60;99.90
54518;DHT22;40423;53.176;6.002;2023-04-24T07:34:06;9.60;99.90
54518;DHT22;40423;53.176;6.002;2023-04-24T07:36:32;9.60;99.90
54518;DHT22;40423;53.176;6.002;2023-04-24T07:38:58;9.50;99.90
54518;DHT22;40423;53.176;6.002;2023-04-24T07:41:24;9.50;99.90
54518;DHT22;40423;53.176;6.002;2023-04-24T07:43:49;9.40;99.90
54518;DHT22;40423;53.176;6.002;2023-04-24T07:46:15;9.40;99.90
54518;DHT22;40423;53.176;6.002;2023-04-24T07:48:41;9.30;99.90
54518;DHT22;40423;53.176;6.002;2023-04-24T07:51:07;9.30;99.90
54518;DHT22;40423;53.176;6.002;2023-04-24T07:53:35;9.30;99.90
54518;DHT22;40423;53.176;6.002;2023-04-24T07:56:01;9.30;99.90
54518;DHT22;40423;53.176;6.002;2023-04-24T07:58:26;9.30;99.90
54518;DHT22;40423;53.176;6.002;2023-04-24T08:00:52;9.30;99.90
54518;DHT22;40423;53.176;6.002;2023-04-24T08:03:18;9.40;99.90
54518;DHT22;40423;53.176;6.002;2023-04-24T08:05:45;9.40;99.90
54518;DHT22;40423;53.176;6.002;2023-04-24T08:08:11;9.40;99.90
54518;DHT22;40423;53.176;6.002;2023-04-24T08:10:37;9.40;99.90
54518;DHT22;40423;53.176;6.002;2023-04-24T08:13:02;9.40;99.90
54518;DHT22;40423;53.176;6.002;2023-04-24T08:15:28;9.50;99.90
54518;DHT22;40423;53.176;6.002;2023-04-24T08:17:54;9.50;99.90
54518;DHT22;40423;53.176;6.002;2023-04-24T08:20:22;9.60;99.90
54518;DHT22;40423;53.176;6.002;2023-04-24T08:22:48;9.70;99.90
54518;DHT22;40423;53.176;6.002;2023-04-24T08:25:14;9.80;99.90
54518;DHT22;40423;53.176;6.002;2023-04-24T08:27:40;9.80;99.90
54518;DHT22;40423;53.176;6.002;2023-04-24T08:30:07;9.80;99.90
54518;DHT22;40423;53.176;6.002;2023-04-24T08:32:32;9.90;99.90
54518;DHT22;40423;53.176;6.002;2023-04-24T08:34:59;9.80;99.90
54518;DHT22;40423;53.176;6.002;2023-04-24T08:37:26;9.90;99.90
54518;DHT22;40423;53.176;6.002;2023-04-24T08:39:53;9.90;99.90
54518;DHT22;40423;53.176;6.002;2023-04-24T08:42:19;9.80;99.90
54518;DHT22;40423;53.176;6.002;2023-04-24T08:44:47;9.80;99.90
54518;DHT22;40423;53.176;6.002;2023-04-24T08:47:15;9.80;99.90
54518;DHT22;40423;53.176;6.002;2023-04-24T08:49:41;9.80;99.90
54518;DHT22;40423;53.176;6.002;2023-04-24T08:52:08;9.70;99.90
54518;DHT22;40423;53.176;6.002;2023-04-24T08:54:35;9.80;99.90
54518;DHT22;40423;53.176;6.002;2023-04-24T08:57:03;9.80;99.90
54518;DHT22;40423;53.176;6.002;2023-04-24T08:59:31;9.70;99.90
54518;DHT22;40423;53.176;6.002;2023-04-24T09:01:57;9.70;99.90
54518;DHT22;40423;53.176;6.002;2023-04-24T09:04:24;9.70;99.90
54518;DHT22;40423;53.176;6.002;2023-04-24T09:06:57;9.70;99.90
54518;DHT22;40423;53.176;6.002;2023-04-24T09:09:24;9.80;99.90
54518;DHT22;40423;53.176;6.002;2023-04-24T09:11:51;9.80;99.90
54518;DHT22;40423;53.176;6.002;2023-04-24T09:14:20;9.90;99.90
54518;DHT22;40423;53.176;6.002;2023-04-24T09:16:46;10.00;99.90
54518;DHT22;40423;53.176;6.002;2023-04-24T09:19:13;10.00;99.90
54518;DHT22;40423;53.176;6.002;2023-04-24T09:21:38;10.00;99.90
54518;DHT22;40423;53.176;6.002;2023-04-24T09:24:18;10.10;99.90
54518;DHT22;40423;53.176;6.002;2023-04-24T09:26:44;10.20;99.90
54518;DHT22;40423;53.176;6.002;2023-04-24T09:29:19;10.20;99.90
54518;DHT22;40423;53.176;6.002;2023-04-24T09:31:46;10.30;99.90
54518;DHT22;40423;53.176;6.002;2023-04-24T09:34:12;10.30;99.90
54518;DHT22;40423;53.176;6.002;2023-04-24T09:36:40;10.30;99.90
54518;DHT22;40423;53.176;6.002;2023-04-24T09:39:10;10.20;99.90
54518;DHT22;40423;53.176;6.002;2023-04-24T09:41:45;10.30;99.90
54518;DHT22;40423;53.176;6.002;2023-04-24T09:44:19;10.30;99.90
54518;DHT22;40423;53.176;6.002;2023-04-24T09:46:56;10.40;99.90
54518;DHT22;40423;53.176;6.002;2023-04-24T09:49:30;10.30;99.90
54518;DHT22;40423;53.176;6.002;2023-04-24T09:52:11;10.10;99.90
54518;DHT22;40423;53.176;6.002;2023-04-24T09:54:38;10.10;99.90
54518;DHT22;40423;53.176;6.002;2023-04-24T09:57:04;10.10;99.90
54518;DHT22;40423;53.176;6.002;2023-04-24T09:59:30;10.00;99.90
54518;DHT22;40423;53.176;6.002;2023-04-24T10:01:56;10.00;99.90
54518;DHT22;40423;53.176;6.002;2023-04-24T10:04:26;10.00;99.90
54518;DHT22;40423;53.176;6.002;2023-04-24T10:06:56;10.00;99.90
54518;DHT22;40423;53.176;6.002;2023-04-24T10:09:24;10.00;99.90
54518;DHT22;40423;53.176;6.002;2023-04-24T10:11:51;10.10;99.90
54518;DHT22;40423;53.176;6.002;2023-04-24T10:14:22;10.10;99.90
54518;DHT22;40423;53.176;6.002;2023-04-24T10:16:49;10.20;99.90
54518;DHT22;40423;53.176;6.002;2023-04-24T10:19:15;10.30;99.90
54518;DHT22;40423;53.176;6.002;2023-04-24T10:21:44;10.10;99.90
54518;DHT22;40423;53.176;6.002;2023-04-24T10:24:14;10.00;99.90
54518;DHT22;40423;53.176;6.002;2023-04-24T10:26:41;10.00;99.90
54518;DHT22;40423;53.176;6.002;2023-04-24T10:29:06;9.80;99.90
54518;DHT22;40423;53.176;6.002;2023-04-24T10:31:38;9.80;99.90
54518;DHT22;40423;53.176;6.002;2023-04-24T10:34:08;9.70;99.90
54518;DHT22;40423;53.176;6.002;2023-04-24T10:36:36;9.80;99.90
54518;DHT22;40423;53.176;6.002;2023-04-24T10:39:07;9.80;99.90
54518;DHT22;40423;53.176;6.002;2023-04-24T10:41:37;9.80;99.90
54518;DHT22;40423;53.176;6.002;2023-04-24T10:44:11;9.80;99.90
54518;DHT22;40423;53.176;6.002;2023-04-24T10:46:39;9.90;99.90
54518;DHT22;40423;53.176;6.002;2023-04-24T10:49:07;10.00;99.90
54518;DHT22;40423;53.176;6.002;2023-04-24T10:52:06;10.10;99.90
54518;DHT22;40423;53.176;6.002;2023-04-24T11:00:09;10.20;99.90
54518;DHT22;40423;53.176;6.002;2023-04-24T11:02:37;10.30;99.90
54518;DHT22;40423;53.176;6.002;2023-04-24T11:05:04;10.20;99.90
54518;DHT22;40423;53.176;6.002;2023-04-24T11:07:30;10.20;99.90
54518;DHT22;40423;53.176;6.002;2023-04-24T11:10:28;10.10;99.90
54518;DHT22;40423;53.176;6.002;2023-04-24T11:12:53;10.00;99.90
54518;DHT22;40423;53.176;6.002;2023-04-24T11:15:19;9.80;99.90
54518;DHT22;40423;53.176;6.002;2023-04-24T11:17:45;9.50;99.90
54518;DHT22;40423;53.176;6.002;2023-04-24T11:20:16;9.50;99.90
54518;DHT22;40423;53.176;6.002;2023-04-24T11:22:43;9.40;99.90
54518;DHT22;40423;53.176;6.002;2023-04-24T11:25:09;9.40;99.90
54518;DHT22;40423;53.176;6.002;2023-04-24T11:27:44;9.50;99.90
54518;DHT22;40423;53.176;6.002;2023-04-24T11:30:17;9.50;99.90
54518;DHT22;40423;53.176;6.002;2023-04-24T11:32:47;9.70;99.90
54518;DHT22;40423;53.176;6.002;2023-04-24T11:35:16;9.80;99.90
54518;DHT22;40423;53.176;6.002;2023-04-24T11:37:44;9.70;99.90
54518;DHT22;40423;53.176;6.002;2023-04-24T11:40:12;9.70;99.90
54518;DHT22;40423;53.176;6.002;2023-04-24T11:42:43;9.80;99.90
54518;DHT22;40423;53.176;6.002;2023-04-24T11:45:14;9.90;99.90
54518;DHT22;40423;53.176;6.002;2023-04-24T11:47:41;9.90;99.90
54518;DHT22;40423;53.176;6.002;2023-04-24T11:50:09;9.90;99.90
54518;DHT22;40423;53.176;6.002;2023-04-24T11:52:40;9.90;99.90
54518;DHT22;40423;53.176;6.002;2023-04-24T11:55:25;9.90;99.90
54518;DHT22;40423;53.176;6.002;2023-04-24T11:57:57;9.70;99.90
54518;DHT22;40423;53.176;6.002;2023-04-24T12:00:28;9.70;99.90
54518;DHT22;40423;53.176;6.002;2023-04-24T12:03:06;9.80;99.90
54518;DHT22;40423;53.176;6.002;2023-04-24T12:05:32;9.90;99.90
54518;DHT22;40423;53.176;6.002;2023-04-24T12:07:59;10.00;99.90
54518;DHT22;40423;53.176;6.002;2023-04-24T12:10:27;10.10;99.90
54518;DHT22;40423;53.176;6.002;2023-04-24T12:12:56;10.20;99.90
54518;DHT22;40423;53.176;6.002;2023-04-24T12:15:23;10.20;99.90
54518;DHT22;40423;53.176;6.002;2023-04-24T12:17:51;10.20;99.90
54518;DHT22;40423;53.176;6.002;2023-04-24T12:20:30;10.30;99.90
54518;DHT22;40423;53.176;6.002;2023-04-24T12:22:58;10.40;99.90
54518;DHT22;40423;53.176;6.002;2023-04-24T12:25:29;10.50;99.90
54518;DHT22;40423;53.176;6.002;2023-04-24T12:30:32;10.50;99.90
54518;DHT22;40423;53.176;6.002;2023-04-24T12:32:59;10.70;99.90
54518;DHT22;40423;53.176;6.002;2023-04-24T12:35:28;11.00;99.90
54518;DHT22;40423;53.176;6.002;2023-04-24T12:37:54;11.10;99.90
54518;DHT22;40423;53.176;6.002;2023-04-24T12:40:21;11.10;99.90
54518;DHT22;40423;53.176;6.002;2023-04-24T12:42:51;11.00;99.90
54518;DHT22;40423;53.176;6.002;2023-04-24T12:45:18;10.70;99.90
54518;DHT22;40423;53.176;6.002;2023-04-24T12:47:45;10.70;99.90
54518;DHT22;40423;53.176;6.002;2023-04-24T12:50:13;10.80;99.90
54518;DHT22;40423;53.176;6.002;2023-04-24T12:52:39;10.70;99.90
54518;DHT22;40423;53.176;6.002;2023-04-24T12:55:06;10.40;99.90
54518;DHT22;40423;53.176;6.002;2023-04-24T12:57:37;10.40;99.90
54518;DHT22;40423;53.176;6.002;2023-04-24T13:00:07;10.30;99.90
54518;DHT22;40423;53.176;6.002;2023-04-24T13:02:34;10.40;99.90
54518;DHT22;40423;53.176;6.002;2023-04-24T13:05:00;10.30;99.90
54518;DHT22;40423;53.176;6.002;2023-04-24T13:07:26;10.30;99.90
54518;DHT22;40423;53.176;6.002;2023-04-24T13:09:54;10.40;99.90
54518;DHT22;40423;53.176;6.002;2023-04-24T13:12:20;10.20;99.90
54518;DHT22;40423;53.176;6.002;2023-04-24T13:14:46;10.10;99.90
54518;DHT22;40423;53.176;6.002;2023-04-24T13:17:12;10.10;99.90
54518;DHT22;40423;53.176;6.002;2023-04-24T13:19:42;10.10;99.90
54518;DHT22;40423;53.176;6.002;2023-04-24T13:22:10;10.10;99.90
54518;DHT22;40423;53.176;6.002;2023-04-24T13:24:36;10.20;99.90
54518;DHT22;40423;53.176;6.002;2023-04-24T13:27:02;10.10;99.90
54518;DHT22;40423;53.176;6.002;2023-04-24T13:29:28;10.10;99.90
54518;DHT22;40423;53.176;6.002;2023-04-24T13:31:55;10.00;99.90
54518;DHT22;40423;53.176;6.002;2023-04-24T13:34:23;9.80;99.90
54518;DHT22;40423;53.176;6.002;2023-04-24T13:36:53;9.80;99.90
54518;DHT22;40423;53.176;6.002;2023-04-24T13:39:20;9.80;99.90
54518;DHT22;40423;53.176;6.002;2023-04-24T13:41:45;9.70;99.90
54518;DHT22;40423;53.176;6.002;2023-04-24T13:44:17;9.70;99.90
54518;DHT22;40423;53.176;6.002;2023-04-24T13:46:43;9.80;99.90
54518;DHT22;40423;53.176;6.002;2023-04-24T13:49:11;9.70;99.90
54518;DHT22;40423;53.176;6.002;2023-04-24T13:51:38;9.60;99.90
54518;DHT22;40423;53.176;6.002;2023-04-24T13:54:04;9.60;99.90
54518;DHT22;40423;53.176;6.002;2023-04-24T13:56:29;9.70;99.90
54518;DHT22;40423;53.176;6.002;2023-04-24T13:58:56;9.70;99.90
54518;DHT22;40423;53.176;6.002;2023-04-24T14:01:22;9.80;99.90
54518;DHT22;40423;53.176;6.002;2023-04-24T14:03:54;9.90;99.90
54518;DHT22;40423;53.176;6.002;2023-04-24T14:06:22;10.00;99.90
54518;DHT22;40423;53.176;6.002;2023-04-24T14:08:49;9.80;99.90
54518;DHT22;40423;53.176;6.002;2023-04-24T14:11:16;9.70;99.90
54518;DHT22;40423;53.176;6.002;2023-04-24T14:13:43;9.80;99.90
54518;DHT22;40423;53.176;6.002;2023-04-24T14:16:10;9.70;99.90
54518;DHT22;40423;53.176;6.002;2023-04-24T14:18:36;9.70;99.90
54518;DHT22;40423;53.176;6.002;2023-04-24T14:21:02;9.70;99.90
54518;DHT22;40423;53.176;6.002;2023-04-24T14:23:28;9.60;99.90
54518;DHT22;40423;53.176;6.002;2023-04-24T14:25:54;9.70;99.90
54518;DHT22;40423;53.176;6.002;2023-04-24T14:28:20;9.70;99.90
54518;DHT22;40423;53.176;6.002;2023-04-24T14:30:47;9.60;99.90
54518;DHT22;40423;53.176;6.002;2023-04-24T14:33:13;9.60;99.90
54518;DHT22;40423;53.176;6.002;2023-04-24T14:35:42;9.70;99.90
54518;DHT22;40423;53.176;6.002;2023-04-24T14:38:08;9.60;99.90
54518;DHT22;40423;53.176;6.002;2023-04-24T14:40:34;9.60;99.90
54518;DHT22;40423;53.176;6.002;2023-04-24T14:43:00;9.60;99.90
54518;DHT22;40423;53.176;6.002;2023-04-24T14:45:26;9.60;99.90
54518;DHT22;40423;53.176;6.002;2023-04-24T14:47:52;9.60;99.90
54518;DHT22;40423;53.176;6.002;2023-04-24T14:50:18;9.50;99.90
54518;DHT22;40423;53.176;6.002;2023-04-24T14:52:44;9.40;99.90
54518;DHT22;40423;53.176;6.002;2023-04-24T14:55:10;9.50;99.90
54518;DHT22;40423;53.176;6.002;2023-04-24T14:57:36;9.50;99.90
54518;DHT22;40423;53.176;6.002;2023-04-24T15:00:08;9.50;99.90
54518;DHT22;40423;53.176;6.002;2023-04-24T15:02:35;9.50;99.90
54518;DHT22;40423;53.176;6.002;2023-04-24T15:05:05;9.50;99.90
54518;DHT22;40423;53.176;6.002;2023-04-24T15:07:31;9.50;99.90
54518;DHT22;40423;53.176;6.002;2023-04-24T15:09:58;9.40;99.90
54518;DHT22;40423;53.176;6.002;2023-04-24T15:12:24;9.40;99.90
54518;DHT22;40423;53.176;6.002;2023-04-24T15:14:50;9.50;99.90
54518;DHT22;40423;53.176;6.002;2023-04-24T15:17:16;9.50;99.90
54518;DHT22;40423;53.176;6.002;2023-04-24T15:19:41;9.50;99.90
54518;DHT22;40423;53.176;6.002;2023-04-24T15:22:07;9.50;99.90
54518;DHT22;40423;53.176;6.002;2023-04-24T15:24:33;9.50;99.90
54518;DHT22;40423;53.176;6.002;2023-04-24T15:26:59;9.40;99.90
54518;DHT22;40423;53.176;6.002;2023-04-24T15:29:27;9.30;99.90
54518;DHT22;40423;53.176;6.002;2023-04-24T15:31:53;9.20;99.90
54518;DHT22;40423;53.176;6.002;2023-04-24T15:34:18;9.20;99.90
54518;DHT22;40423;53.176;6.002;2023-04-24T15:36:44;9.20;99.90
54518;DHT22;40423;53.176;6.002;2023-04-24T15:39:10;9.30;99.90
54518;DHT22;40423;53.176;6.002;2023-04-24T15:41:36;9.30;99.90
54518;DHT22;40423;53.176;6.002;2023-04-24T15:44:01;9.40;99.90